sensor_id;sensor_type;location;lat;lon;timestamp;P1;durP1;ratioP1;P2;durP2;ratioP2
3817;SDS011;1924;48.078;11.516;2023-02-02T00:00:59;22.30;;;0.70;;
3817;SDS011;1924;48.078;11.516;2023-02-02T00:03:28;22.20;;;0.70;;
3817;SDS011;1924;48.078;11.516;2023-02-02T00:05:55;22.30;;;0.70;;
3817;SDS011;1924;48.078;11.516;2023-02-02T00:08:22;22.20;;;0.70;;
3817;SDS011;1924;48.078;11.516;2023-02-02T00:10:48;22.20;;;0.70;;
3817;SDS011;1924;48.078;11.516;2023-02-02T00:13:15;22.37;;;0.70;;
3817;SDS011;1924;48.078;11.516;2023-02-02T00:15:42;22.33;;;0.70;;
3817;SDS011;1924;48.078;11.516;2023-02-02T00:18:09;22.20;;;0.70;;
3817;SDS011;1924;48.078;11.516;2023-02-02T00:20:37;22.20;;;0.70;;
3817;SDS011;1924;48.078;11.516;2023-02-02T00:23:04;22.30;;;0.70;;
3817;SDS011;1924;48.078;11.516;2023-02-02T00:25:31;22.40;;;0.70;;
3817;SDS011;1924;48.078;11.516;2023-02-02T00:27:58;22.33;;;0.70;;
3817;SDS011;1924;48.078;11.516;2023-02-02T00:30:25;22.30;;;0.70;;
3817;SDS011;1924;48.078;11.516;2023-02-02T00:32:51;22.10;;;0.70;;
3817;SDS011;1924;48.078;11.516;2023-02-02T00:35:18;22.30;;;0.70;;
3817;SDS011;1924;48.078;11.516;2023-02-02T00:37:47;22.37;;;0.70;;
3817;SDS011;1924;48.078;11.516;2023-02-02T00:40:13;22.40;;;0.70;;
3817;SDS011;1924;48.078;11.516;2023-02-02T00:42:40;22.37;;;0.70;;
3817;SDS011;1924;48.078;11.516;2023-02-02T00:45:13;22.30;;;0.70;;
3817;SDS011;1924;48.078;11.516;2023-02-02T00:47:42;22.30;;;0.70;;
3817;SDS011;1924;48.078;11.516;2023-02-02T00:50:10;22.20;;;0.70;;
3817;SDS011;1924;48.078;11.516;2023-02-02T00:52:38;22.40;;;0.70;;
3817;SDS011;1924;48.078;11.516;2023-02-02T00:55:07;22.30;;;0.70;;
3817;SDS011;1924;48.078;11.516;2023-02-02T00:57:35;22.27;;;0.70;;
3817;SDS011;1924;48.078;11.516;2023-02-02T01:00:02;22.40;;;0.70;;
3817;SDS011;1924;48.078;11.516;2023-02-02T01:02:30;22.30;;;0.70;;
3817;SDS011;1924;48.078;11.516;2023-02-02T01:04:57;22.10;;;0.70;;
3817;SDS011;1924;48.078;11.516;2023-02-02T01:07:24;22.33;;;0.80;;
3817;SDS011;1924;48.078;11.516;2023-02-02T01:09:51;22.30;;;0.70;;
3817;SDS011;1924;48.078;11.516;2023-02-02T01:12:19;22.20;;;0.70;;
3817;SDS011;1924;48.078;11.516;2023-02-02T01:14:45;22.27;;;0.70;;
3817;SDS011;1924;48.078;11.516;2023-02-02T01:17:12;22.37;;;0.70;;
3817;SDS011;1924;48.078;11.516;2023-02-02T01:19:39;22.10;;;0.70;;
3817;SDS011;1924;48.078;11.516;2023-02-02T01:22:06;22.30;;;0.70;;
3817;SDS011;1924;48.078;11.516;2023-02-02T01:24:33;22.37;;;0.70;;
3817;SDS011;1924;48.078;11.516;2023-02-02T01:27:00;22.23;;;0.70;;
3817;SDS011;1924;48.078;11.516;2023-02-02T01:29:28;22.20;;;0.70;;
3817;SDS011;1924;48.078;11.516;2023-02-02T01:31:55;22.20;;;0.70;;
3817;SDS011;1924;48.078;11.516;2023-02-02T01:34:22;22.20;;;0.70;;
3817;SDS011;1924;48.078;11.516;2023-02-02T01:36:49;22.10;;;0.70;;
3817;SDS011;1924;48.078;11.516;2023-02-02T01:39:16;22.20;;;0.70;;
3817;SDS011;1924;48.078;11.516;2023-02-02T01:41:43;22.17;;;0.70;;
3817;SDS011;1924;48.078;11.516;2023-02-02T05:01:32;22.30;;;0.70;;
3817;SDS011;1924;48.078;11.516;2023-02-02T05:03:59;22.37;;;0.70;;
3817;SDS011;1924;48.078;11.516;2023-02-02T05:06:25;22.30;;;0.70;;
3817;SDS011;1924;48.078;11.516;2023-02-02T05:08:52;22.30;;;0.70;;
3817;SDS011;1924;48.078;11.516;2023-02-02T05:11:21;22.30;;;0.70;;
3817;SDS011;1924;48.078;11.516;2023-02-02T05:13:49;22.40;;;0.70;;
3817;SDS011;1924;48.078;11.516;2023-02-02T05:16:17;22.50;;;0.70;;
3817;SDS011;1924;48.078;11.516;2023-02-02T05:18:48;22.40;;;0.70;;
3817;SDS011;1924;48.078;11.516;2023-02-02T05:21:15;22.40;;;0.70;;
3817;SDS011;1924;48.078;11.516;2023-02-02T05:23:42;22.50;;;0.70;;
3817;SDS011;1924;48.078;11.516;2023-02-02T05:26:10;22.40;;;0.70;;
3817;SDS011;1924;48.078;11.516;2023-02-02T05:28:39;22.50;;;0.70;;
3817;SDS011;1924;48.078;11.516;2023-02-02T05:31:07;22.30;;;0.70;;
3817;SDS011;1924;48.078;11.516;2023-02-02T05:33:33;22.30;;;0.70;;
3817;SDS011;1924;48.078;11.516;2023-02-02T05:36:02;22.30;;;0.70;;
3817;SDS011;1924;48.078;11.516;2023-02-02T05:38:29;22.10;;;0.70;;
3817;SDS011;1924;48.078;11.516;2023-02-02T05:40:55;22.47;;;0.70;;
3817;SDS011;1924;48.078;11.516;2023-02-02T05:43:23;22.30;;;0.70;;
3817;SDS011;1924;48.078;11.516;2023-02-02T05:45:50;22.30;;;0.77;;
3817;SDS011;1924;48.078;11.516;2023-02-02T05:48:17;22.40;;;0.70;;
3817;SDS011;1924;48.078;11.516;2023-02-02T05:50:44;22.20;;;0.70;;
3817;SDS011;1924;48.078;11.516;2023-02-02T05:53:15;22.30;;;0.70;;
3817;SDS011;1924;48.078;11.516;2023-02-02T05:55:42;22.40;;;0.70;;
3817;SDS011;1924;48.078;11.516;2023-02-02T05:58:09;22.50;;;0.80;;
3817;SDS011;1924;48.078;11.516;2023-02-02T06:00:36;22.40;;;0.70;;
3817;SDS011;1924;48.078;11.516;2023-02-02T06:03:03;22.37;;;0.70;;
3817;SDS011;1924;48.078;11.516;2023-02-02T06:05:29;22.40;;;0.70;;
3817;SDS011;1924;48.078;11.516;2023-02-02T06:07:56;22.47;;;0.70;;
3817;SDS011;1924;48.078;11.516;2023-02-02T06:10:24;22.40;;;0.70;;
3817;SDS011;1924;48.078;11.516;2023-02-02T06:12:51;22.33;;;0.73;;
3817;SDS011;1924;48.078;11.516;2023-02-02T06:15:17;22.40;;;0.70;;
3817;SDS011;1924;48.078;11.516;2023-02-02T06:17:44;22.50;;;0.70;;
3817;SDS011;1924;48.078;11.516;2023-02-02T06:20:11;22.47;;;0.70;;
3817;SDS011;1924;48.078;11.516;2023-02-02T06:22:38;22.37;;;0.70;;
3817;SDS011;1924;48.078;11.516;2023-02-02T06:25:06;22.30;;;0.70;;
3817;SDS011;1924;48.078;11.516;2023-02-02T06:27:35;22.40;;;0.70;;
3817;SDS011;1924;48.078;11.516;2023-02-02T06:30:01;22.40;;;0.70;;
3817;SDS011;1924;48.078;11.516;2023-02-02T06:32:28;22.40;;;0.70;;
3817;SDS011;1924;48.078;11.516;2023-02-02T06:34:55;22.30;;;0.70;;
3817;SDS011;1924;48.078;11.516;2023-02-02T06:37:22;22.30;;;0.90;;
3817;SDS011;1924;48.078;11.516;2023-02-02T06:39:49;22.37;;;0.70;;
3817;SDS011;1924;48.078;11.516;2023-02-02T06:42:15;22.47;;;0.70;;
3817;SDS011;1924;48.078;11.516;2023-02-02T06:44:43;22.47;;;0.70;;
3817;SDS011;1924;48.078;11.516;2023-02-02T06:47:10;22.30;;;0.70;;
3817;SDS011;1924;48.078;11.516;2023-02-02T06:49:36;22.40;;;0.70;;
3817;SDS011;1924;48.078;11.516;2023-02-02T06:52:03;22.37;;;0.70;;
3817;SDS011;1924;48.078;11.516;2023-02-02T06:54:30;22.40;;;0.70;;
3817;SDS011;1924;48.078;11.516;2023-02-02T06:56:57;22.43;;;0.70;;
3817;SDS011;1924;48.078;11.516;2023-02-02T06:59:23;22.50;;;0.70;;
3817;SDS011;1924;48.078;11.516;2023-02-02T07:01:51;22.43;;;0.70;;
3817;SDS011;1924;48.078;11.516;2023-02-02T07:04:18;22.40;;;0.70;;
3817;SDS011;1924;48.078;11.516;2023-02-02T07:06:45;22.43;;;0.70;;
3817;SDS011;1924;48.078;11.516;2023-02-02T07:09:13;22.40;;;0.70;;
3817;SDS011;1924;48.078;11.516;2023-02-02T07:11:40;22.30;;;0.70;;
3817;SDS011;1924;48.078;11.516;2023-02-02T07:14:07;22.40;;;0.70;;
3817;SDS011;1924;48.078;11.516;2023-02-02T07:16:34;22.40;;;0.70;;
3817;SDS011;1924;48.078;11.516;2023-02-02T07:19:02;22.30;;;0.70;;
3817;SDS011;1924;48.078;11.516;2023-02-02T07:21:29;22.30;;;0.70;;
3817;SDS011;1924;48.078;11.516;2023-02-02T07:23:59;22.30;;;0.70;;
3817;SDS011;1924;48.078;11.516;2023-02-02T07:26:26;22.20;;;0.70;;
3817;SDS011;1924;48.078;11.516;2023-02-02T07:28:53;22.33;;;0.70;;
3817;SDS011;1924;48.078;11.516;2023-02-02T07:31:21;22.40;;;0.70;;
3817;SDS011;1924;48.078;11.516;2023-02-02T07:33:49;22.30;;;0.70;;
3817;SDS011;1924;48.078;11.516;2023-02-02T07:36:18;22.50;;;0.70;;
3817;SDS011;1924;48.078;11.516;2023-02-02T07:38:47;22.50;;;0.70;;
3817;SDS011;1924;48.078;11.516;2023-02-02T07:41:15;22.30;;;0.70;;
3817;SDS011;1924;48.078;11.516;2023-02-02T07:43:42;22.30;;;0.70;;
3817;SDS011;1924;48.078;11.516;2023-02-02T07:46:12;22.50;;;0.70;;
3817;SDS011;1924;48.078;11.516;2023-02-02T07:48:38;22.40;;;0.70;;
3817;SDS011;1924;48.078;11.516;2023-02-02T07:51:06;22.30;;;0.70;;
3817;SDS011;1924;48.078;11.516;2023-02-02T07:53:35;22.60;;;0.70;;
3817;SDS011;1924;48.078;11.516;2023-02-02T07:56:06;22.50;;;0.70;;
3817;SDS011;1924;48.078;11.516;2023-02-02T07:58:34;22.40;;;0.70;;
3817;SDS011;1924;48.078;11.516;2023-02-02T08:01:01;22.40;;;0.70;;
3817;SDS011;1924;48.078;11.516;2023-02-02T08:03:27;22.47;;;0.70;;
3817;SDS011;1924;48.078;11.516;2023-02-02T08:05:54;22.33;;;0.70;;
3817;SDS011;1924;48.078;11.516;2023-02-02T08:08:21;22.30;;;0.70;;
3817;SDS011;1924;48.078;11.516;2023-02-02T08:10:50;22.30;;;0.70;;
3817;SDS011;1924;48.078;11.516;2023-02-02T08:13:18;22.50;;;0.70;;
3817;SDS011;1924;48.078;11.516;2023-02-02T08:15:45;22.40;;;0.70;;
3817;SDS011;1924;48.078;11.516;2023-02-02T08:18:12;22.30;;;0.70;;
3817;SDS011;1924;48.078;11.516;2023-02-02T08:20:39;22.20;;;0.70;;
3817;SDS011;1924;48.078;11.516;2023-02-02T08:23:05;22.40;;;0.70;;
3817;SDS011;1924;48.078;11.516;2023-02-02T08:25:37;22.40;;;0.70;;
3817;SDS011;1924;48.078;11.516;2023-02-02T08:28:05;22.30;;;0.70;;
3817;SDS011;1924;48.078;11.516;2023-02-02T08:30:33;22.43;;;0.70;;
3817;SDS011;1924;48.078;11.516;2023-02-02T08:32:59;22.47;;;0.70;;
3817;SDS011;1924;48.078;11.516;2023-02-02T08:35:26;22.30;;;0.70;;
3817;SDS011;1924;48.078;11.516;2023-02-02T08:37:53;22.47;;;0.70;;
3817;SDS011;1924;48.078;11.516;2023-02-02T08:40:19;22.40;;;0.70;;
3817;SDS011;1924;48.078;11.516;2023-02-02T08:42:47;22.37;;;0.70;;
3817;SDS011;1924;48.078;11.516;2023-02-02T08:45:19;22.40;;;0.70;;
3817;SDS011;1924;48.078;11.516;2023-02-02T08:47:46;22.40;;;0.70;;
3817;SDS011;1924;48.078;11.516;2023-02-02T08:50:13;22.40;;;0.80;;
3817;SDS011;1924;48.078;11.516;2023-02-02T08:52:40;22.60;;;0.70;;
3817;SDS011;1924;48.078;11.516;2023-02-02T08:55:06;22.30;;;0.70;;
3817;SDS011;1924;48.078;11.516;2023-02-02T08:57:33;22.40;;;0.70;;
3817;SDS011;1924;48.078;11.516;2023-02-02T09:00:00;22.40;;;0.70;;
3817;SDS011;1924;48.078;11.516;2023-02-02T09:02:29;22.40;;;0.70;;
3817;SDS011;1924;48.078;11.516;2023-02-02T09:04:56;22.50;;;0.70;;
3817;SDS011;1924;48.078;11.516;2023-02-02T09:07:22;22.30;;;0.70;;
3817;SDS011;1924;48.078;11.516;2023-02-02T09:09:49;22.40;;;0.70;;
3817;SDS011;1924;48.078;11.516;2023-02-02T09:12:17;22.40;;;0.70;;
3817;SDS011;1924;48.078;11.516;2023-02-02T09:14:46;22.30;;;0.70;;
3817;SDS011;1924;48.078;11.516;2023-02-02T09:17:13;22.47;;;0.70;;
3817;SDS011;1924;48.078;11.516;2023-02-02T09:19:41;22.50;;;0.70;;
3817;SDS011;1924;48.078;11.516;2023-02-02T09:22:07;22.50;;;0.70;;
3817;SDS011;1924;48.078;11.516;2023-02-02T09:24:34;22.50;;;0.70;;
3817;SDS011;1924;48.078;11.516;2023-02-02T09:27:01;22.60;;;0.70;;
3817;SDS011;1924;48.078;11.516;2023-02-02T09:29:27;22.57;;;0.70;;
3817;SDS011;1924;48.078;11.516;2023-02-02T09:31:54;22.40;;;0.70;;
3817;SDS011;1924;48.078;11.516;2023-02-02T09:34:21;22.37;;;0.70;;
3817;SDS011;1924;48.078;11.516;2023-02-02T09:36:49;22.40;;;0.70;;
3817;SDS011;1924;48.078;11.516;2023-02-02T09:39:16;22.30;;;0.70;;
3817;SDS011;1924;48.078;11.516;2023-02-02T09:42:06;22.40;;;0.70;;
3817;SDS011;1924;48.078;11.516;2023-02-02T09:44:55;22.50;;;0.70;;
3817;SDS011;1924;48.078;11.516;2023-02-02T09:47:28;22.47;;;0.70;;
3817;SDS011;1924;48.078;11.516;2023-02-02T09:50:14;22.60;;;0.70;;
3817;SDS011;1924;48.078;11.516;2023-02-02T09:52:48;22.50;;;0.70;;
3817;SDS011;1924;48.078;11.516;2023-02-02T09:55:22;22.50;;;0.70;;
3817;SDS011;1924;48.078;11.516;2023-02-02T09:57:56;22.47;;;0.70;;
3817;SDS011;1924;48.078;11.516;2023-02-02T10:00:30;22.53;;;0.70;;
3817;SDS011;1924;48.078;11.516;2023-02-02T10:02:59;22.73;;;0.70;;
3817;SDS011;1924;48.078;11.516;2023-02-02T10:05:31;22.50;;;0.70;;
3817;SDS011;1924;48.078;11.516;2023-02-02T10:08:09;22.70;;;0.70;;
3817;SDS011;1924;48.078;11.516;2023-02-02T10:10:42;22.50;;;0.70;;
3817;SDS011;1924;48.078;11.516;2023-02-02T10:13:12;22.70;;;0.70;;
3817;SDS011;1924;48.078;11.516;2023-02-02T10:15:45;22.60;;;0.70;;
3817;SDS011;1924;48.078;11.516;2023-02-02T10:18:18;22.80;;;0.70;;
3817;SDS011;1924;48.078;11.516;2023-02-02T10:20:50;22.77;;;0.70;;
3817;SDS011;1924;48.078;11.516;2023-02-02T10:23:24;22.60;;;0.70;;
3817;SDS011;1924;48.078;11.516;2023-02-02T10:25:56;22.70;;;0.70;;
3817;SDS011;1924;48.078;11.516;2023-02-02T10:28:28;22.80;;;0.70;;
3817;SDS011;1924;48.078;11.516;2023-02-02T10:31:04;22.83;;;0.70;;
3817;SDS011;1924;48.078;11.516;2023-02-02T10:33:39;22.80;;;0.70;;
3817;SDS011;1924;48.078;11.516;2023-02-02T10:36:09;22.60;;;0.70;;
3817;SDS011;1924;48.078;11.516;2023-02-02T10:38:44;22.60;;;0.70;;
3817;SDS011;1924;48.078;11.516;2023-02-02T10:41:18;22.70;;;0.70;;
3817;SDS011;1924;48.078;11.516;2023-02-02T10:44:00;22.77;;;0.80;;
3817;SDS011;1924;48.078;11.516;2023-02-02T10:46:35;22.60;;;0.70;;
3817;SDS011;1924;48.078;11.516;2023-02-02T10:49:10;22.60;;;0.70;;
3817;SDS011;1924;48.078;11.516;2023-02-02T10:51:48;22.80;;;0.70;;
3817;SDS011;1924;48.078;11.516;2023-02-02T10:57:13;22.80;;;0.70;;
3817;SDS011;1924;48.078;11.516;2023-02-02T10:59:45;22.60;;;0.70;;
3817;SDS011;1924;48.078;11.516;2023-02-02T11:02:22;22.50;;;0.70;;
3817;SDS011;1924;48.078;11.516;2023-02-02T11:04:48;22.60;;;0.70;;
3817;SDS011;1924;48.078;11.516;2023-02-02T11:07:32;22.77;;;0.70;;
3817;SDS011;1924;48.078;11.516;2023-02-02T11:10:02;22.50;;;0.70;;
3817;SDS011;1924;48.078;11.516;2023-02-02T11:12:29;22.70;;;0.70;;
3817;SDS011;1924;48.078;11.516;2023-02-02T11:15:00;22.60;;;0.70;;
3817;SDS011;1924;48.078;11.516;2023-02-02T11:17:29;22.63;;;0.70;;
3817;SDS011;1924;48.078;11.516;2023-02-02T11:19:56;22.60;;;0.70;;
3817;SDS011;1924;48.078;11.516;2023-02-02T11:22:24;22.80;;;0.70;;
3817;SDS011;1924;48.078;11.516;2023-02-02T11:24:54;22.70;;;0.70;;
3817;SDS011;1924;48.078;11.516;2023-02-02T11:27:24;22.73;;;0.70;;
3817;SDS011;1924;48.078;11.516;2023-02-02T11:29:53;22.70;;;0.70;;
3817;SDS011;1924;48.078;11.516;2023-02-02T11:32:25;22.70;;;0.70;;
3817;SDS011;1924;48.078;11.516;2023-02-02T11:37:52;22.70;;;0.70;;
3817;SDS011;1924;48.078;11.516;2023-02-02T11:40:25;22.70;;;0.70;;
3817;SDS011;1924;48.078;11.516;2023-02-02T11:42:59;22.70;;;0.70;;
3817;SDS011;1924;48.078;11.516;2023-02-02T11:45:29;22.70;;;0.70;;
3817;SDS011;1924;48.078;11.516;2023-02-02T11:48:00;22.80;;;0.70;;
3817;SDS011;1924;48.078;11.516;2023-02-02T11:50:29;22.80;;;0.70;;
3817;SDS011;1924;48.078;11.516;2023-02-02T11:52:56;22.80;;;0.70;;
3817;SDS011;1924;48.078;11.516;2023-02-02T11:55:24;22.70;;;0.70;;
3817;SDS011;1924;48.078;11.516;2023-02-02T11:58:10;22.60;;;0.70;;
3817;SDS011;1924;48.078;11.516;2023-02-02T12:00:49;22.80;;;0.70;;
3817;SDS011;1924;48.078;11.516;2023-02-02T12:03:22;22.80;;;0.70;;
3817;SDS011;1924;48.078;11.516;2023-02-02T12:05:50;22.80;;;0.70;;
3817;SDS011;1924;48.078;11.516;2023-02-02T12:08:17;22.80;;;0.70;;
3817;SDS011;1924;48.078;11.516;2023-02-02T12:10:45;22.97;;;0.70;;
3817;SDS011;1924;48.078;11.516;2023-02-02T12:13:21;22.80;;;0.70;;
3817;SDS011;1924;48.078;11.516;2023-02-02T12:16:05;22.70;;;0.70;;
3817;SDS011;1924;48.078;11.516;2023-02-02T12:18:44;22.83;;;0.70;;
3817;SDS011;1924;48.078;11.516;2023-02-02T12:21:24;22.87;;;0.70;;
3817;SDS011;1924;48.078;11.516;2023-02-02T12:24:03;22.67;;;0.70;;
3817;SDS011;1924;48.078;11.516;2023-02-02T12:26:53;22.80;;;0.70;;
3817;SDS011;1924;48.078;11.516;2023-02-02T12:29:38;22.87;;;0.70;;
3817;SDS011;1924;48.078;11.516;2023-02-02T12:32:20;22.70;;;0.70;;
3817;SDS011;1924;48.078;11.516;2023-02-02T12:35:17;22.90;;;0.70;;
3817;SDS011;1924;48.078;11.516;2023-02-02T12:37:56;22.87;;;0.70;;
3817;SDS011;1924;48.078;11.516;2023-02-02T12:40:38;22.80;;;0.70;;
3817;SDS011;1924;48.078;11.516;2023-02-02T12:43:21;23.00;;;0.70;;
3817;SDS011;1924;48.078;11.516;2023-02-02T12:48:56;22.90;;;0.70;;
3817;SDS011;1924;48.078;11.516;2023-02-02T12:51:47;23.13;;;0.70;;
3817;SDS011;1924;48.078;11.516;2023-02-02T12:54:35;22.90;;;0.70;;
3817;SDS011;1924;48.078;11.516;2023-02-02T12:57:11;23.00;;;0.70;;
3817;SDS011;1924;48.078;11.516;2023-02-02T12:59:52;23.17;;;0.70;;
3817;SDS011;1924;48.078;11.516;2023-02-02T13:02:29;23.17;;;0.70;;
3817;SDS011;1924;48.078;11.516;2023-02-02T13:05:04;22.90;;;0.70;;
3817;SDS011;1924;48.078;11.516;2023-02-02T13:07:47;23.00;;;0.70;;
3817;SDS011;1924;48.078;11.516;2023-02-02T13:10:19;22.80;;;0.70;;
3817;SDS011;1924;48.078;11.516;2023-02-02T13:12:52;23.00;;;0.70;;
3817;SDS011;1924;48.078;11.516;2023-02-02T13:15:22;23.17;;;0.70;;
3817;SDS011;1924;48.078;11.516;2023-02-02T13:17:58;22.90;;;0.70;;
3817;SDS011;1924;48.078;11.516;2023-02-02T13:20:30;23.00;;;0.70;;
3817;SDS011;1924;48.078;11.516;2023-02-02T13:23:04;23.10;;;0.70;;
3817;SDS011;1924;48.078;11.516;2023-02-02T13:25:36;23.10;;;0.70;;
3817;SDS011;1924;48.078;11.516;2023-02-02T13:28:10;22.90;;;0.70;;
3817;SDS011;1924;48.078;11.516;2023-02-02T13:30:44;23.00;;;0.70;;
3817;SDS011;1924;48.078;11.516;2023-02-02T13:33:16;23.10;;;0.70;;
3817;SDS011;1924;48.078;11.516;2023-02-02T13:35:48;22.90;;;0.70;;
3817;SDS011;1924;48.078;11.516;2023-02-02T13:38:18;23.00;;;0.70;;
3817;SDS011;1924;48.078;11.516;2023-02-02T13:40:48;23.00;;;0.70;;
3817;SDS011;1924;48.078;11.516;2023-02-02T13:43:20;22.90;;;0.70;;
3817;SDS011;1924;48.078;11.516;2023-02-02T13:45:59;23.10;;;0.70;;
3817;SDS011;1924;48.078;11.516;2023-02-02T13:48:38;22.90;;;0.70;;
3817;SDS011;1924;48.078;11.516;2023-02-02T13:51:30;22.90;;;0.70;;
3817;SDS011;1924;48.078;11.516;2023-02-02T14:00:12;22.90;;;0.70;;
3817;SDS011;1924;48.078;11.516;2023-02-02T14:02:43;23.17;;;0.70;;
3817;SDS011;1924;48.078;11.516;2023-02-02T14:05:21;23.03;;;0.70;;
3817;SDS011;1924;48.078;11.516;2023-02-02T14:07:53;23.10;;;0.70;;
3817;SDS011;1924;48.078;11.516;2023-02-02T14:10:25;23.17;;;0.70;;
3817;SDS011;1924;48.078;11.516;2023-02-02T14:12:53;23.10;;;0.70;;
3817;SDS011;1924;48.078;11.516;2023-02-02T14:15:34;23.20;;;0.70;;
3817;SDS011;1924;48.078;11.516;2023-02-02T14:18:02;23.00;;;0.70;;
3817;SDS011;1924;48.078;11.516;2023-02-02T14:32:01;23.10;;;0.70;;
3817;SDS011;1924;48.078;11.516;2023-02-02T14:34:32;23.40;;;0.70;;
3817;SDS011;1924;48.078;11.516;2023-02-02T14:37:12;23.40;;;0.70;;
3817;SDS011;1924;48.078;11.516;2023-02-02T14:40:18;23.40;;;0.70;;
3817;SDS011;1924;48.078;11.516;2023-02-02T14:42:55;23.40;;;0.70;;
3817;SDS011;1924;48.078;11.516;2023-02-02T14:45:48;23.50;;;0.70;;
3817;SDS011;1924;48.078;11.516;2023-02-02T14:48:46;23.50;;;0.70;;
3817;SDS011;1924;48.078;11.516;2023-02-02T14:51:31;23.47;;;0.70;;
3817;SDS011;1924;48.078;11.516;2023-02-02T14:54:14;23.53;;;0.70;;
3817;SDS011;1924;48.078;11.516;2023-02-02T14:56:46;23.50;;;0.70;;
3817;SDS011;1924;48.078;11.516;2023-02-02T14:59:15;23.40;;;0.70;;
3817;SDS011;1924;48.078;11.516;2023-02-02T15:01:51;23.40;;;0.70;;
3817;SDS011;1924;48.078;11.516;2023-02-02T15:04:23;23.50;;;0.80;;
3817;SDS011;1924;48.078;11.516;2023-02-02T15:06:51;23.57;;;0.70;;
3817;SDS011;1924;48.078;11.516;2023-02-02T15:09:38;23.57;;;0.70;;
3817;SDS011;1924;48.078;11.516;2023-02-02T15:15:10;23.60;;;0.80;;
3817;SDS011;1924;48.078;11.516;2023-02-02T15:17:50;23.60;;;0.80;;
3817;SDS011;1924;48.078;11.516;2023-02-02T15:20:25;23.50;;;0.70;;
3817;SDS011;1924;48.078;11.516;2023-02-02T15:22:55;23.60;;;0.70;;
3817;SDS011;1924;48.078;11.516;2023-02-02T15:25:28;23.60;;;0.70;;
3817;SDS011;1924;48.078;11.516;2023-02-02T15:27:59;23.57;;;0.70;;
3817;SDS011;1924;48.078;11.516;2023-02-02T15:30:32;23.67;;;0.70;;
3817;SDS011;1924;48.078;11.516;2023-02-02T15:33:02;23.60;;;0.77;;
3817;SDS011;1924;48.078;11.516;2023-02-02T15:35:37;23.67;;;0.70;;
3817;SDS011;1924;48.078;11.516;2023-02-02T15:38:05;23.50;;;0.70;;
3817;SDS011;1924;48.078;11.516;2023-02-02T15:40:40;23.60;;;0.70;;
3817;SDS011;1924;48.078;11.516;2023-02-02T15:43:07;23.67;;;0.70;;
3817;SDS011;1924;48.078;11.516;2023-02-02T15:45:38;23.77;;;0.70;;
3817;SDS011;1924;48.078;11.516;2023-02-02T15:48:15;23.70;;;0.70;;
3817;SDS011;1924;48.078;11.516;2023-02-02T15:50:47;23.70;;;0.70;;
3817;SDS011;1924;48.078;11.516;2023-02-02T15:53:19;23.60;;;0.70;;
3817;SDS011;1924;48.078;11.516;2023-02-02T15:55:49;23.70;;;0.70;;
3817;SDS011;1924;48.078;11.516;2023-02-02T15:58:24;23.80;;;0.70;;
3817;SDS011;1924;48.078;11.516;2023-02-02T16:00:57;23.50;;;0.70;;
3817;SDS011;1924;48.078;11.516;2023-02-02T16:03:25;23.70;;;0.70;;
3817;SDS011;1924;48.078;11.516;2023-02-02T16:05:58;23.70;;;0.70;;
3817;SDS011;1924;48.078;11.516;2023-02-02T16:08:27;23.70;;;0.70;;
3817;SDS011;1924;48.078;11.516;2023-02-02T16:11:03;23.77;;;0.70;;
3817;SDS011;1924;48.078;11.516;2023-02-02T16:13:32;23.70;;;0.70;;
3817;SDS011;1924;48.078;11.516;2023-02-02T16:16:00;23.50;;;0.70;;
3817;SDS011;1924;48.078;11.516;2023-02-02T16:18:29;23.60;;;0.70;;
3817;SDS011;1924;48.078;11.516;2023-02-02T16:20:56;23.70;;;0.70;;
3817;SDS011;1924;48.078;11.516;2023-02-02T16:23:27;23.70;;;0.70;;
3817;SDS011;1924;48.078;11.516;2023-02-02T16:25:56;23.60;;;0.70;;
3817;SDS011;1924;48.078;11.516;2023-02-02T16:28:26;23.70;;;0.70;;
3817;SDS011;1924;48.078;11.516;2023-02-02T16:30:53;23.87;;;0.70;;
3817;SDS011;1924;48.078;11.516;2023-02-02T16:33:33;23.77;;;0.70;;
3817;SDS011;1924;48.078;11.516;2023-02-02T16:36:18;23.60;;;0.70;;
3817;SDS011;1924;48.078;11.516;2023-02-02T16:38:48;23.70;;;0.70;;
3817;SDS011;1924;48.078;11.516;2023-02-02T16:41:26;23.70;;;0.80;;
3817;SDS011;1924;48.078;11.516;2023-02-02T16:43:57;23.90;;;0.70;;
3817;SDS011;1924;48.078;11.516;2023-02-02T16:46:53;23.80;;;0.70;;
3817;SDS011;1924;48.078;11.516;2023-02-02T16:49:21;23.60;;;0.70;;
3817;SDS011;1924;48.078;11.516;2023-02-02T16:52:05;23.70;;;0.70;;
3817;SDS011;1924;48.078;11.516;2023-02-02T16:54:34;23.60;;;0.70;;
3817;SDS011;1924;48.078;11.516;2023-02-02T16:57:02;23.70;;;0.70;;
3817;SDS011;1924;48.078;11.516;2023-02-02T16:59:32;23.60;;;0.70;;
3817;SDS011;1924;48.078;11.516;2023-02-02T17:02:02;23.83;;;0.70;;
3817;SDS011;1924;48.078;11.516;2023-02-02T17:04:40;23.90;;;0.70;;
3817;SDS011;1924;48.078;11.516;2023-02-02T17:07:13;23.60;;;0.70;;
3817;SDS011;1924;48.078;11.516;2023-02-02T17:09:41;23.70;;;0.70;;
3817;SDS011;1924;48.078;11.516;2023-02-02T17:12:20;23.60;;;0.70;;
3817;SDS011;1924;48.078;11.516;2023-02-02T17:14:51;23.77;;;0.77;;
3817;SDS011;1924;48.078;11.516;2023-02-02T17:17:20;23.80;;;0.70;;
3817;SDS011;1924;48.078;11.516;2023-02-02T17:19:47;23.70;;;0.70;;
3817;SDS011;1924;48.078;11.516;2023-02-02T17:22:14;23.70;;;0.70;;
3817;SDS011;1924;48.078;11.516;2023-02-02T17:24:44;23.80;;;0.73;;
3817;SDS011;1924;48.078;11.516;2023-02-02T17:27:12;23.90;;;0.73;;
3817;SDS011;1924;48.078;11.516;2023-02-02T17:29:42;23.70;;;0.70;;
3817;SDS011;1924;48.078;11.516;2023-02-02T17:32:11;23.90;;;0.70;;
3817;SDS011;1924;48.078;11.516;2023-02-02T17:34:38;23.70;;;0.70;;
3817;SDS011;1924;48.078;11.516;2023-02-02T17:37:05;23.80;;;0.70;;
3817;SDS011;1924;48.078;11.516;2023-02-02T17:39:32;23.80;;;0.70;;
3817;SDS011;1924;48.078;11.516;2023-02-02T17:41:58;23.80;;;0.70;;
3817;SDS011;1924;48.078;11.516;2023-02-02T17:44:25;23.70;;;0.70;;
3817;SDS011;1924;48.078;11.516;2023-02-02T17:46:52;23.77;;;0.70;;
3817;SDS011;1924;48.078;11.516;2023-02-02T17:49:20;23.83;;;0.70;;
3817;SDS011;1924;48.078;11.516;2023-02-02T17:51:47;23.80;;;0.70;;
3817;SDS011;1924;48.078;11.516;2023-02-02T17:54:14;23.70;;;0.70;;
3817;SDS011;1924;48.078;11.516;2023-02-02T17:56:42;23.80;;;0.70;;
3817;SDS011;1924;48.078;11.516;2023-02-02T17:59:10;23.90;;;0.70;;
3817;SDS011;1924;48.078;11.516;2023-02-02T18:01:37;23.80;;;0.70;;
3817;SDS011;1924;48.078;11.516;2023-02-02T18:04:06;23.87;;;0.70;;
3817;SDS011;1924;48.078;11.516;2023-02-02T18:06:36;23.70;;;0.70;;
3817;SDS011;1924;48.078;11.516;2023-02-02T18:09:04;23.80;;;0.70;;
3817;SDS011;1924;48.078;11.516;2023-02-02T18:11:31;23.70;;;0.70;;
3817;SDS011;1924;48.078;11.516;2023-02-02T18:13:57;23.80;;;0.70;;
3817;SDS011;1924;48.078;11.516;2023-02-02T18:16:24;23.70;;;0.70;;
3817;SDS011;1924;48.078;11.516;2023-02-02T18:18:51;23.70;;;0.70;;
3817;SDS011;1924;48.078;11.516;2023-02-02T18:21:19;23.80;;;0.70;;
3817;SDS011;1924;48.078;11.516;2023-02-02T18:23:47;23.70;;;0.70;;
3817;SDS011;1924;48.078;11.516;2023-02-02T18:26:15;23.80;;;0.70;;
3817;SDS011;1924;48.078;11.516;2023-02-02T18:28:43;23.70;;;0.70;;
3817;SDS011;1924;48.078;11.516;2023-02-02T18:31:12;23.70;;;0.70;;
3817;SDS011;1924;48.078;11.516;2023-02-02T18:33:41;23.90;;;0.70;;
3817;SDS011;1924;48.078;11.516;2023-02-02T18:36:09;23.70;;;0.70;;
3817;SDS011;1924;48.078;11.516;2023-02-02T18:38:37;23.70;;;0.70;;
3817;SDS011;1924;48.078;11.516;2023-02-02T18:41:07;23.70;;;0.70;;
3817;SDS011;1924;48.078;11.516;2023-02-02T18:43:33;23.83;;;0.70;;
3817;SDS011;1924;48.078;11.516;2023-02-02T18:46:00;23.70;;;0.70;;
3817;SDS011;1924;48.078;11.516;2023-02-02T18:48:30;23.80;;;0.70;;
3817;SDS011;1924;48.078;11.516;2023-02-02T18:50:57;23.70;;;0.70;;
3817;SDS011;1924;48.078;11.516;2023-02-02T18:53:25;23.60;;;0.70;;
3817;SDS011;1924;48.078;11.516;2023-02-02T18:55:51;23.83;;;0.70;;